Terminal Aerodrome Forecast
Issued by NWS

Home | Current Version | Previous Version | Text Only | Print | Product List | Glossary On
Versions: 1 2 3 4 5 6 7 8 9 10 11 12 13 14 15 16 17
000
FTUS46 KMTR 221800 AAA
TAFMRY
TAF AMD
KMRY 221852Z 2219/2318 VRB04KT P6SM SCT020
     FM230200 VRB03KT P6SM OVC012
     FM230800 VRB03KT 4SM BR OVC006
     FM231600 VRB03KT P6SM BKN015=

USA.gov is the U.S. government's official web portal to all federal, state and local government web resources and services.